sensor_id;sensor_type;location;lat;lon;timestamp;pressure;altitude;pressure_sealevel;temperature;humidity
70488;BME280;57976;48.174;16.370;2022-11-12T00:01:37;100909.08;;;11.47;76.38
70488;BME280;57976;48.174;16.370;2022-11-12T00:04:00;100909.77;;;11.43;76.72
70488;BME280;57976;48.174;16.370;2022-11-12T00:06:23;100908.67;;;11.38;76.85
70488;BME280;57976;48.174;16.370;2022-11-12T00:08:47;100910.61;;;11.32;76.89
70488;BME280;57976;48.174;16.370;2022-11-12T00:11:10;100909.58;;;11.26;77.25
70488;BME280;57976;48.174;16.370;2022-11-12T00:13:33;100908.91;;;11.19;77.42
70488;BME280;57976;48.174;16.370;2022-11-12T00:15:57;100913.14;;;11.14;77.66
70488;BME280;57976;48.174;16.370;2022-11-12T00:18:21;100914.13;;;11.09;78.29
70488;BME280;57976;48.174;16.370;2022-11-12T00:20:44;100916.04;;;11.07;78.84
70488;BME280;57976;48.174;16.370;2022-11-12T00:23:08;100916.63;;;11.00;79.53
70488;BME280;57976;48.174;16.370;2022-11-12T00:25:31;100912.45;;;10.91;80.40
70488;BME280;57976;48.174;16.370;2022-11-12T00:27:56;100910.86;;;10.84;80.85
70488;BME280;57976;48.174;16.370;2022-11-12T00:30:22;100908.39;;;10.79;81.37
70488;BME280;57976;48.174;16.370;2022-11-12T00:32:45;100901.64;;;10.74;81.91
70488;BME280;57976;48.174;16.370;2022-11-12T00:35:09;100898.60;;;10.71;82.53
70488;BME280;57976;48.174;16.370;2022-11-12T00:37:36;100896.83;;;10.69;82.40
70488;BME280;57976;48.174;16.370;2022-11-12T00:39:59;100901.05;;;10.70;81.85
70488;BME280;57976;48.174;16.370;2022-11-12T00:42:22;100898.94;;;10.70;81.95
70488;BME280;57976;48.174;16.370;2022-11-12T00:44:45;100897.40;;;10.69;82.25
70488;BME280;57976;48.174;16.370;2022-11-12T00:47:09;100898.55;;;10.68;81.71
70488;BME280;57976;48.174;16.370;2022-11-12T00:49:32;100899.36;;;10.67;81.22
70488;BME280;57976;48.174;16.370;2022-11-12T00:51:55;100901.35;;;10.65;80.43
70488;BME280;57976;48.174;16.370;2022-11-12T00:54:19;100898.45;;;10.59;79.85
70488;BME280;57976;48.174;16.370;2022-11-12T00:56:42;100897.78;;;10.57;80.01
70488;BME280;57976;48.174;16.370;2022-11-12T00:59:07;100897.32;;;10.52;79.08
70488;BME280;57976;48.174;16.370;2022-11-12T01:01:31;100893.51;;;10.48;79.01
70488;BME280;57976;48.174;16.370;2022-11-12T01:03:55;100890.77;;;10.45;78.55
70488;BME280;57976;48.174;16.370;2022-11-12T01:06:21;100884.98;;;10.42;78.54
70488;BME280;57976;48.174;16.370;2022-11-12T01:08:45;100888.44;;;10.43;79.00
70488;BME280;57976;48.174;16.370;2022-11-12T01:11:10;100890.58;;;10.45;78.50
70488;BME280;57976;48.174;16.370;2022-11-12T01:13:34;100880.63;;;10.48;78.28
70488;BME280;57976;48.174;16.370;2022-11-12T01:16:06;100881.46;;;10.52;78.04
70488;BME280;57976;48.174;16.370;2022-11-12T01:18:29;100877.48;;;10.56;78.24
70488;BME280;57976;48.174;16.370;2022-11-12T01:20:53;100876.79;;;10.59;77.98
70488;BME280;57976;48.174;16.370;2022-11-12T01:23:16;100871.70;;;10.64;77.89
70488;BME280;57976;48.174;16.370;2022-11-12T01:25:39;100878.41;;;10.66;77.52
70488;BME280;57976;48.174;16.370;2022-11-12T01:28:02;100876.41;;;10.69;77.71
70488;BME280;57976;48.174;16.370;2022-11-12T01:30:26;100874.08;;;10.69;77.61
70488;BME280;57976;48.174;16.370;2022-11-12T01:32:49;100875.45;;;10.72;77.13
70488;BME280;57976;48.174;16.370;2022-11-12T01:35:12;100873.55;;;10.71;77.05
70488;BME280;57976;48.174;16.370;2022-11-12T01:37:36;100870.35;;;10.72;76.59
70488;BME280;57976;48.174;16.370;2022-11-12T01:39:59;100866.85;;;10.74;76.60
70488;BME280;57976;48.174;16.370;2022-11-12T01:42:23;100863.95;;;10.74;76.25
70488;BME280;57976;48.174;16.370;2022-11-12T01:44:50;100866.27;;;10.74;76.29
70488;BME280;57976;48.174;16.370;2022-11-12T01:47:16;100868.13;;;10.75;75.87
70488;BME280;57976;48.174;16.370;2022-11-12T01:49:44;100873.52;;;10.78;75.81
70488;BME280;57976;48.174;16.370;2022-11-12T01:52:18;100871.95;;;10.79;75.41
70488;BME280;57976;48.174;16.370;2022-11-12T01:54:43;100877.70;;;10.79;75.27
70488;BME280;57976;48.174;16.370;2022-11-12T01:57:10;100875.86;;;10.76;75.12
70488;BME280;57976;48.174;16.370;2022-11-12T01:59:39;100873.59;;;10.74;75.05
